X Fechar
foto
Salvar nos Favoritos

X Fechar
foto
Clique e saiba mais
Clique e saiba mais
Clique e saiba mais
Clique e saiba mais
Clique e saiba mais
Clique e saiba mais
Clique e saiba mais
Clique e saiba mais

América Sports

Edgers Racing

KTM Sacramento

Toro Sports

SP Race Park

JPS Racing

MotoX Pneus

Arenafama

Clique e saiba mais

> Notícias > Últimas Notícias

Resultados e vídeo das classificatórias do MXGP da Argentina
Publicado em: 02/03/2019

Romain Febvre e Thomas Kjer Olsen vencem as classificatórias da primeira etapa de 2019
Redação MotoX.com.br: Lucidio Arruda - Foto: Bavo Swijgers / Youthstream

Começou o Mundial de Motocross 2019! O mais belo circuito da temporada recebe a abertura da série prevista em 20 etapas. Neste sábado rolaram os treinos livres e as classificatórias que definem a ordem de escolha do gate nas provas principais do domingo. Participam 29 pilotos na MXGP e 32 na MX2.


Largada MXGP

Na classe MXGP Tim Gajser fez o holeshot e liderou mais da metade da corrida. Na nona volta caiu, deixando a ponta com o francês Romain Febvre. Gajser voltaria a sofre uma queda - mais forte - logo depois. Completou a classificatória em nono.

Febvre comandou as voltas finais e recebeu a bandeirada seguido de Julien LIeber e Jeremy van Horebeek. De se notar que Horebeek há poucas semanas estava sem perspectivas de competir no Mundial, mas arrumou uma equipe privada com motos Honda.


Romain Febvre

Outro piloto que ficaria de fora da abertura na Argentina é o alemão Max Nagl, que correria apenas nas etapas europeias, mas foi à Argentina bancado por uma vaquinha dos fãs. Nagl completou a classificatória em sexto.

Antonio Cairoli largou mal e completou apenas três voltas antes de sua KTM parar repentinamente. O italiano, que corre em busca do 10º título, terá a última escolha do gate nas provas principais deste domingo.

Como você já deve saber, o atual campeão Jeffrey Herlings fraturou o pé direito em janeiro e ainda não tem data para voltar.

MX2


Thomas Kjer Olsen

Na classe MX2 o dinamarquês Thomas Kjer Olsen foi o mais rápido na parte final da corrida e aproveitou-se da disputa entre Jorge Prado e Henry Jacobi para ultrapassar os dois durante as voltas finais. Prado e Jacobi continuaram a batalha trocando de posições continuamente e a disputa só foi definida quando o espanhol espremeu o alemão para fora da pista na última volta.

Gustavo Pessoa foi o melhor sul-americano com a 18º posição. Seu companheiro na Dixon Racing Kawasaki, Darian Sanayei, quebrou o motor na sexta volta.

Vídeo Melhores Momentos MX2 e MXGP:




Resultados

P. # MXGP País M Tempo V Dif. Gap M.V. inlap Speed
1 461 Febvre, Romain FRA Yam 24:21.194 13 0:00.000 0:00.000 1:42.146 5 58.8
2 33 Lieber, Julien BEL Kaw 24:25.500 13 0:04.306 0:04.306 1:43.324 1 58.1
3 89 Van Horebeek,Jeremy BEL Hon 24:27.730 13 0:06.536 0:02.230 1:43.766 7 57.9
4 25 Desalle, Clement BEL Kaw 24:31.571 13 0:10.377 0:03.841 1:43.896 4 57.8
5 99 Anstie, Max GBR KTM 24:35.156 13 0:13.962 0:03.585 1:44.243 5 57.6
6 12 Nagl, Maximilian GER KTM 24:35.806 13 0:14.612 0:00.650 1:44.527 2 57.5
7 21 Paulin, Gautier FRA Yam 24:38.222 13 0:17.028 0:02.416 1:44.540 3 57.5
8 4 Tonus, Arnaud SUI Yam 24:45.984 13 0:24.790 0:07.762 1:45.144 9 57.1
9 243 Gajser, Tim SLO Hon 24:48.335 13 0:27.141 0:02.351 1:42.665 1 58.5
10 27 Jasikonis,Arminas LTU Hus 24:57.548 13 0:36.354 0:09.213 1:45.573 4 56.9
11 100 Searle, Tommy GBR Kaw 25:00.270 13 0:39.076 0:02.722 1:45.861 3 56.7
12 77 Lupino,Alessandro ITA Kaw 25:04.046 13 0:42.852 0:03.776 1:45.183 1 57.1
13 91 Seewer, Jeremy SUI Yam 25:05.702 13 0:44.508 0:01.656 1:46.647 6 56.3
14 911 Tixier, Jordi FRA KTM 25:06.763 13 0:45.569 0:01.061 1:45.848 2 56.7
15 24 Simpson, Shaun GBR KTM 25:08.103 13 0:46.909 0:01.340 1:46.224 10 56.5
16 128 Monticelli, Ivo ITA KTM 25:14.947 13 0:53.753 0:06.844 1:45.779 5 56.8
17 259 Coldenhoff,Glenn NED KTM 25:16.788 13 0:55.594 0:01.841 1:46.813 3 56.2
18 41 Jonass, Pauls LAT Hus 25:18.321 13 0:57.127 0:01.533 1:45.940 1 56.7
19 17 Butron, Jose ESP KTM 25:18.534 13 0:57.340 0:00.213 1:46.865 4 56.2
20 220 Salazar, Jetro PER Hon 25:29.384 13 1:08.190 0:10.850 1:47.604 2 55.8
21 189 Bogers, Brian NED Hon 25:32.517 13 1:11.323 0:03.133 1:46.713 3 56.3
22 179 Poli, Joaquin ARG Hon 25:42.753 13 1:21.559 0:10.236 1:46.746 2 56.3
23 230 Assuncao ,Hector BRA Hon 25:51.027 13 1:29.833 0:08.274 1:48.033 2 55.6
24 789 Antezana, Marcos BOL Hon 25:53.854 13 1:32.660 0:02.827 1:49.419 2 54.9
25 171 Luzzardi, JuanPablo ARG KTM 24:43.369 12 1 lap 1 lap 1:50.677 1 54.3
26 175 Garrido, Victor ARG Hon 25:25.199 12 1 lap 0:41.830 1:52.124 1 53.6
27 146 Urrutia,Francisco URU KTM 20:41.303 8 5 laps 4 laps 1:55.996 1 51.8
28 222 Cairoli, Antonio ITA KTM 8:50.591 4 9 laps 4 laps 1:44.767 4 57.3
29 777 Bobryshev,Evgeny RUS Kaw 6:40.864 2 11 laps 2 laps 1:48.881 1 55.2

P. # MX2 País M Tempo V Dif. Gap M.V. inlap Speed
1 19 Olsen, ThomasKjer DEN Hus 24:24.613 13 0:00.000 0:00.000 1:43.559 11 58
2 61 Prado, Jorge ESP KTM 24:26.880 13 0:02.267 0:02.267 1:43.397 4 58.1
3 29 Jacobi, Henry GER Kaw 24:28.160 13 0:03.547 0:01.280 1:43.573 7 58
4 919 Watson, Ben GBR Yam 24:43.538 13 0:18.925 0:15.378 1:45.040 11 57.2
5 10 Vlaanderen,Calvin NED Hon 24:50.732 13 0:26.119 0:07.194 1:45.425 6 57
6 43 Evans, Mitchell AUS Hon 24:53.271 13 0:28.658 0:02.539 1:45.268 9 57.1
7 811 Sterry, Adam GBR Kaw 24:58.554 13 0:33.941 0:05.283 1:45.117 1 57.1
8 161 Östlund, Alvin SWE Hus 25:00.300 13 0:35.687 0:01.746 1:45.793 6 56.8
9 426 Mewse, Conrad GBR KTM 25:00.685 13 0:36.072 0:00.385 1:45.500 3 56.9
10 193 Geerts, Jago BEL Yam 25:02.834 13 0:38.221 0:02.149 1:45.856 6 56.7
11 28 Vialle, Tom FRA KTM 25:04.295 13 0:39.682 0:01.461 1:45.101 1 57.2
12 46 Pootjes, Davy NED Hus 25:08.196 13 0:43.583 0:03.901 1:46.175 2 56.6
13 11 Haarup, Mikkel DEN Hus 25:11.663 13 0:47.050 0:03.467 1:46.961 7 56.2
14 66 LarranagaOlano, Iker ESP KTM 25:12.742 13 0:48.129 0:01.079 1:47.042 8 56.1
15 747 Cervellin,Michele ITA Yam 25:13.953 13 0:49.340 0:01.211 1:46.878 7 56.2
16 98 Vaessen, Bas NED KTM 25:16.239 13 0:51.626 0:02.286 1:46.203 13 56.6
17 959 Renaux, Maxime FRA Yam 25:20.717 13 0:56.104 0:04.478 1:46.861 3 56.2
18 56 Pessoa, Gustavo BRA Kaw 25:21.278 13 0:56.665 0:00.561 1:47.146 10 56.1
19 32 Van doninck,Brent BEL Hon 25:21.984 13 0:57.371 0:00.706 1:47.514 4 55.9
20 172 Boisrame, Mathys FRA Hon 25:22.210 13 0:57.597 0:00.226 1:46.429 1 56.4
21 101 Pichon, Zachary FRA Hon 25:23.911 13 0:59.298 0:01.701 1:47.512 2 55.9
22 102 Sikyna, Richard SVK KTM 25:26.699 13 1:02.086 0:02.788 1:47.742 9 55.7
23 53 Walsh, Dylan NZL Hus 25:58.289 13 1:33.676 0:31.590 1:46.695 3 56.3
24 276 Villaronga,Sergio CHL Hon 26:05.715 13 1:41.102 0:07.426 1:48.309 4 55.5
25 934 Dunka, Lucas BRA Hon 26:18.473 13 1:53.860 0:12.758 1:50.411 2 54.4
26 422 Bratschi, German URU Hus 26:22.067 13 1:57.454 0:03.594 1:50.546 2 54.3
27 155 Mana, Nicolas ARG KTM 24:25.869 12 1 lap 1 lap 1:50.757 2 54.2
28 945 De Souza, Leonardo BRA Hon 24:29.603 12 1 lap 0:03.734 1:51.047 2 54.1
29 133 Righi, Luciano ARG Hus 24:42.628 12 1 lap 0:13.025 1:50.767 4 54.2
30 707 Bearzi, Mateo ARG Hus 25:45.539 12 1 lap 1:02.911 1:54.419 2 52.5
31 265 Diaz Velez,Gonzalo ARG Hon 24:35.013 11 2 laps 1 lap 1:56.402 1 51.6
32 57 Sanayei, Darian USA Kaw 12:38.463 6 7 laps 5 laps 1:46.853 5 56.2






Curso MotoX
JPS Racing

© 2000 - 2018 MotoX MX1 Internet